Time;durP1;ratioP1;P1;durP2;ratioP2;P2;SDS_P1;SDS_P2;PMS_P1;PMS_P2;Temp;Humidity;BMP_temperature;BMP_pressure;BME280_temperature;BME280_humidity;BME280_pressure;Samples;Min_cycle;Max_cycle;Signal;HPM_P1;HPM_P2
2020/12/14 00:03:40;;;;;;;3.37;2.03;;;;;8.20;100066.00;;;;10040917;29;20251;-77
2020/12/14 00:08:42;;;;;;;7.23;1.97;;;;;8.20;100061.00;;;;10026286;29;20216;-77
2020/12/14 00:13:45;;;;;;;7.53;2.70;;;;;8.20;100057.00;;;;10056727;29;20712;-77
2020/12/14 00:18:48;;;;;;;4.80;2.20;;;;;8.20;100069.00;;;;10041332;29;20205;-77
2020/12/14 00:23:51;;;;;;;5.60;2.50;;;;;8.20;100058.00;;;;10044641;29;20225;-77
2020/12/14 00:28:53;;;;;;;9.53;2.83;;;;;8.20;100052.00;;;;10017094;29;20205;-77
2020/12/14 00:33:56;;;;;;;8.67;2.80;;;;;8.20;100048.00;;;;10047467;29;20257;-77
2020/12/14 00:38:58;;;;;;;6.13;2.57;;;;;8.20;100053.00;;;;10031652;29;20273;-77
2020/12/14 00:44:00;;;;;;;4.93;2.30;;;;;8.30;100050.00;;;;10046702;29;20693;-77
2020/12/14 00:49:02;;;;;;;9.37;2.20;;;;;8.30;100046.00;;;;10047200;29;20201;-77
2020/12/14 00:54:06;;;;;;;6.60;2.13;;;;;8.30;100047.00;;;;10032853;29;20219;-77
2020/12/14 00:59:08;;;;;;;5.90;2.10;;;;;8.30;100026.00;;;;10046565;29;20622;-77
2020/12/14 01:04:10;;;;;;;4.83;2.20;;;;;8.30;100013.00;;;;10038884;29;20252;-77
2020/12/14 01:09:13;;;;;;;5.70;2.50;;;;;8.30;100009.00;;;;10061659;29;20213;-77
2020/12/14 01:14:15;;;;;;;3.83;2.00;;;;;8.30;100010.00;;;;10030895;29;20216;-77
2020/12/14 01:19:17;;;;;;;4.57;2.40;;;;;8.30;100022.00;;;;10030235;29;20217;-77
2020/12/14 01:24:19;;;;;;;12.17;2.17;;;;;8.30;100012.00;;;;10030354;29;20258;-77
2020/12/14 01:29:21;;;;;;;5.80;2.50;;;;;8.30;100013.00;;;;10045707;29;20247;-77
2020/12/14 01:34:23;;;;;;;5.17;2.50;;;;;8.40;100020.00;;;;10029529;29;20216;-77
2020/12/14 01:39:26;;;;;;;5.63;2.43;;;;;8.40;100032.00;;;;10045189;29;20204;-77
2020/12/14 01:44:28;;;;;;;7.53;2.83;;;;;8.50;100026.00;;;;10029681;29;20296;-77
2020/12/14 01:49:30;;;;;;;7.47;2.83;;;;;8.50;100022.00;;;;10045528;29;20279;-77
2020/12/14 01:54:36;;;;;;;6.10;2.63;;;;;8.50;100022.00;;;;10044242;29;20569;-77
2020/12/14 01:59:38;;;;;;;6.90;2.43;;;;;8.50;100006.00;;;;10029836;29;20204;-77
2020/12/14 02:04:40;;;;;;;4.77;1.90;;;;;8.50;100003.00;;;;10013853;29;20305;-77
2020/12/14 02:09:43;;;;;;;5.37;2.10;;;;;8.50;100013.00;;;;10044307;29;20628;-78
2020/12/14 02:14:45;;;;;;;6.13;2.13;;;;;8.40;100009.00;;;;10043661;29;20269;-77
2020/12/14 02:19:48;;;;;;;5.97;2.13;;;;;8.40;100028.00;;;;10028713;29;20205;-77
2020/12/14 02:25:16;;;;;;;3.93;2.20;;;;;8.30;100030.00;;;;10027998;29;20228;-77
2020/12/14 02:30:19;;;;;;;4.50;2.07;;;;;8.30;100026.00;;;;10026281;29;20205;-77
2020/12/14 02:35:21;;;;;;;5.00;2.63;;;;;8.40;100007.00;;;;10043867;29;20261;-77
2020/12/14 02:40:23;;;;;;;6.00;2.37;;;;;8.40;100008.00;;;;10043539;29;20249;-78
2020/12/14 02:45:25;;;;;;;4.30;2.30;;;;;8.40;100015.00;;;;10028130;29;20237;-77
2020/12/14 02:50:29;;;;;;;4.67;2.13;;;;;8.30;100010.00;;;;10058327;29;20253;-77
2020/12/14 02:55:32;;;;;;;6.37;2.90;;;;;8.30;99996.00;;;;10058606;29;20606;-78
2020/12/14 03:00:34;;;;;;;6.03;2.97;;;;;8.20;99994.00;;;;10042519;29;20261;-77
2020/12/14 03:05:36;;;;;;;6.30;2.40;;;;;8.20;99987.00;;;;10012454;29;20261;-77
2020/12/14 03:10:38;;;;;;;4.17;2.53;;;;;8.20;100011.00;;;;10058025;29;20201;-77
2020/12/14 03:15:40;;;;;;;7.37;3.00;;;;;8.30;100013.00;;;;10043255;29;20208;-77
2020/12/14 03:20:43;;;;;;;6.80;2.90;;;;;8.30;100009.00;;;;10042322;29;20212;-77
2020/12/14 03:25:45;;;;;;;5.13;2.90;;;;;8.40;100002.00;;;;10058332;29;20217;-77
2020/12/14 03:30:47;;;;;;;3.77;2.33;;;;;8.40;100006.00;;;;10042176;29;20227;-77
2020/12/14 03:35:49;;;;;;;3.80;2.33;;;;;8.40;100009.00;;;;10027189;29;20226;-77
2020/12/14 03:40:51;;;;;;;3.03;1.83;;;;;8.40;99995.00;;;;10058200;29;20197;-78
2020/12/14 03:45:54;;;;;;;6.40;2.50;;;;;8.40;99995.00;;;;10041461;29;20639;-78
2020/12/14 03:50:56;;;;;;;3.97;2.07;;;;;8.40;100007.00;;;;10011107;29;20680;-77
2020/12/14 03:55:59;;;;;;;4.37;2.10;;;;;8.40;99997.00;;;;10041574;29;20201;-77
2020/12/14 04:01:02;;;;;;;6.90;2.47;;;;;8.50;100003.00;;;;10048533;29;20249;-77
2020/12/14 04:06:05;;;;;;;9.33;2.60;;;;;8.50;99994.00;;;;10048374;29;21121;-77
2020/12/14 04:11:07;;;;;;;8.40;2.73;;;;;8.40;99994.00;;;;10063721;29;20197;-76
2020/12/14 04:16:10;;;;;;;5.60;2.20;;;;;8.50;100003.00;;;;10047826;29;20208;-76
2020/12/14 04:21:13;;;;;;;6.50;2.80;;;;;8.50;100003.00;;;;10048152;29;20214;-76
2020/12/14 04:26:15;;;;;;;5.23;2.40;;;;;8.50;100004.00;;;;10063766;29;20224;-76
2020/12/14 04:31:17;;;;;;;3.37;2.47;;;;;8.50;99991.00;;;;10032441;29;21094;-76
2020/12/14 04:36:20;;;;;;;5.80;2.53;;;;;8.60;99988.00;;;;10032016;29;20221;-76
2020/12/14 04:41:23;;;;;;;4.63;2.60;;;;;8.60;99973.00;;;;10047829;29;20573;-76
2020/12/14 04:46:27;;;;;;;7.93;3.13;;;;;8.70;99975.00;;;;10046879;29;20697;-76
2020/12/14 04:51:37;;;;;;;5.90;3.00;;;;;8.70;99984.00;;;;10063331;29;20197;-76
2020/12/14 04:56:41;;;;;;;6.87;2.80;;;;;8.70;99985.00;;;;10031177;29;20205;-76
2020/12/14 05:01:43;;;;;;;3.70;2.57;;;;;8.70;99978.00;;;;10046466;29;20723;-76
2020/12/14 05:06:50;;;;;;;7.03;2.67;;;;;8.80;99988.00;;;;10058268;29;20220;-76
2020/12/14 05:11:53;;;;;;;6.93;3.20;;;;;8.80;99989.00;;;;10068827;29;20204;-76
2020/12/14 05:16:55;;;;;;;6.00;2.63;;;;;8.90;99981.00;;;;10035232;29;20216;-76
2020/12/14 05:21:59;;;;;;;4.50;2.13;;;;;9.00;99998.00;;;;10030906;29;20204;-76
2020/12/14 05:27:02;;;;;;;3.23;1.97;;;;;9.00;99992.00;;;;10045942;29;20311;-77
2020/12/14 05:32:09;;;;;;;4.53;2.40;;;;;9.00;100000.00;;;;10030007;29;20687;-76
2020/12/14 05:37:13;;;;;;;6.37;2.80;;;;;9.10;100004.00;;;;10014534;29;20572;-76
2020/12/14 05:42:20;;;;;;;6.03;2.60;;;;;9.10;100001.00;;;;10045640;29;20216;-76
2020/12/14 05:47:27;;;;;;;7.53;3.13;;;;;9.10;100006.00;;;;10029849;29;20237;-76
2020/12/14 05:52:32;;;;;;;4.50;2.30;;;;;9.10;100005.00;;;;10029520;29;20201;-76
2020/12/14 05:57:36;;;;;;;6.40;2.47;;;;;9.10;100005.00;;;;10043831;29;20602;-76
2020/12/14 06:02:39;;;;;;;5.83;2.43;;;;;9.10;100000.00;;;;10060438;29;20205;-76
2020/12/14 06:07:52;;;;;;;5.60;2.30;;;;;9.20;99995.00;;;;10059134;29;20320;-76
2020/12/14 06:13:05;;;;;;;3.03;1.70;;;;;9.20;99999.00;;;;10044064;29;20204;-75
2020/12/14 06:18:12;;;;;;;4.47;1.87;;;;;9.20;100009.00;;;;10060528;29;20263;-75
2020/12/14 06:23:16;;;;;;;3.37;1.80;;;;;9.30;100000.00;;;;10059564;29;20262;-75
2020/12/14 06:28:29;;;;;;;4.77;2.13;;;;;9.30;99994.00;;;;10042822;29;20307;-75
2020/12/14 06:33:37;;;;;;;3.80;2.10;;;;;9.30;100002.00;;;;10042936;29;20201;-75
2020/12/14 06:38:40;;;;;;;4.90;2.10;;;;;9.30;99979.00;;;;10027340;29;20205;-75
2020/12/14 06:43:43;;;;;;;2.70;1.50;;;;;9.30;99975.00;;;;10058224;29;20285;-75
2020/12/14 06:48:47;;;;;;;1.37;1.00;;;;;9.40;99987.00;;;;10019372;29;20205;-75
2020/12/14 06:53:52;;;;;;;1.50;1.27;;;;;9.30;100002.00;;;;9989183;29;20209;-74
2020/12/14 06:58:55;;;;;;;4.20;1.37;;;;;9.40;100013.00;;;;10003710;29;20205;-74
2020/12/14 07:03:57;;;;;;;0.77;0.70;;;;;9.40;100017.00;;;;10049097;29;20217;-75
2020/12/14 07:08:59;;;;;;;2.87;1.10;;;;;9.40;100032.00;;;;10004045;29;20197;-75
2020/12/14 07:14:22;;;;;;;1.93;1.00;;;;;9.50;100035.00;;;;10015460;29;20217;-74
2020/12/14 07:19:35;;;;;;;3.43;1.07;;;;;9.50;100047.00;;;;10026391;29;20224;-74
2020/12/14 07:24:40;;;;;;;3.30;1.10;;;;;9.50;100047.00;;;;10026784;29;20285;-75
2020/12/14 07:29:42;;;;;;;5.40;1.40;;;;;9.50;100060.00;;;;10057249;29;20205;-74
2020/12/14 07:34:53;;;;;;;6.67;1.20;;;;;9.50;100063.00;;;;10047787;29;20211;-74
2020/12/14 07:39:56;;;;;;;5.27;1.50;;;;;9.60;100057.00;;;;10049154;29;20205;-74
2020/12/14 07:45:14;;;;;;;6.10;1.60;;;;;9.60;100070.00;;;;10065395;29;20240;-75
2020/12/14 07:50:19;;;;;;;5.47;1.57;;;;;9.60;100081.00;;;;10033849;29;20200;-75
2020/12/14 07:55:23;;;;;;;3.13;1.13;;;;;9.70;100073.00;;;;10064006;29;20284;-74
2020/12/14 08:00:26;;;;;;;1.97;1.30;;;;;9.70;100085.00;;;;10063574;29;20205;-75
2020/12/14 08:05:28;;;;;;;5.00;1.23;;;;;9.80;100081.00;;;;10025376;29;20230;-74
2020/12/14 08:10:32;;;;;;;2.13;1.33;;;;;9.80;100085.00;;;;9995597;29;20201;-74
2020/12/14 08:15:35;;;;;;;4.30;1.63;;;;;9.90;100093.00;;;;10016086;29;20221;-75
2020/12/14 08:20:42;;;;;;;2.70;1.57;;;;;9.90;100103.00;;;;10010012;29;20261;-75
2020/12/14 08:25:46;;;;;;;2.73;1.40;;;;;10.10;100099.00;;;;10025325;29;20233;-75
2020/12/14 08:30:48;;;;;;;4.20;1.70;;;;;10.20;100088.00;;;;10009885;29;20201;-75
2020/12/14 08:35:53;;;;;;;2.97;1.40;;;;;10.30;100080.00;;;;10024918;29;20202;-75
2020/12/14 08:40:57;;;;;;;3.23;1.40;;;;;10.40;100080.00;;;;10024829;29;20226;-75
2020/12/14 08:46:08;;;;;;;4.13;1.60;;;;;10.40;100092.00;;;;10035133;29;20245;-75
2020/12/14 08:51:13;;;;;;;3.73;1.20;;;;;10.40;100105.00;;;;10062751;29;20544;-75
2020/12/14 08:56:21;;;;;;;2.57;1.17;;;;;10.60;100095.00;;;;10046636;29;20216;-75
2020/12/14 09:01:28;;;;;;;1.53;1.27;;;;;10.60;100083.00;;;;10029474;29;20621;-75
2020/12/14 09:06:40;;;;;;;5.50;1.80;;;;;10.60;100103.00;;;;10008123;29;20264;-75
2020/12/14 09:11:45;;;;;;;7.83;1.47;;;;;10.50;100089.00;;;;10008500;29;20285;-75
2020/12/14 09:16:59;;;;;;;1.97;0.90;;;;;10.50;100112.00;;;;10008741;29;20213;-75
2020/12/14 09:22:01;;;;;;;4.20;1.20;;;;;10.60;100108.00;;;;10024569;29;20539;-76
2020/12/14 09:27:07;;;;;;;3.10;1.60;;;;;11.10;100115.00;;;;10007856;29;20233;-75
2020/12/14 09:32:11;;;;;;;2.77;1.20;;;;;11.00;100119.00;;;;10061096;29;20245;-75
2020/12/14 09:37:14;;;;;;;2.30;1.30;;;;;11.40;100122.00;;;;10044991;29;20436;-75
2020/12/14 09:42:16;;;;;;;2.97;1.60;;;;;11.70;100138.00;;;;10044712;29;20232;-75
2020/12/14 09:47:18;;;;;;;4.33;1.70;;;;;12.10;100147.00;;;;10046957;29;20233;-75
2020/12/14 09:52:20;;;;;;;2.97;1.63;;;;;12.30;100149.00;;;;10044936;29;20260;-75
2020/12/14 09:57:23;;;;;;;2.57;1.40;;;;;12.20;100147.00;;;;10059562;29;20225;-75
2020/12/14 10:02:25;;;;;;;2.77;1.50;;;;;12.50;100145.00;;;;10042435;29;20245;-75
2020/12/14 10:07:43;;;;;;;4.77;1.77;;;;;12.60;100144.00;;;;10021096;29;20233;-75
2020/12/14 10:12:46;;;;;;;3.90;1.10;;;;;12.00;100140.00;;;;10006377;29;20269;-75
2020/12/14 10:17:49;;;;;;;2.60;1.60;;;;;12.20;100147.00;;;;10027726;29;20297;-75
2020/12/14 10:22:51;;;;;;;2.63;1.40;;;;;12.00;100143.00;;;;10042400;29;20269;-75
2020/12/14 10:27:53;;;;;;;3.20;1.67;;;;;12.60;100145.00;;;;10043991;29;20228;-75
2020/12/14 10:32:56;;;;;;;2.43;1.40;;;;;12.80;100146.00;;;;10042355;29;20212;-75
2020/12/14 10:37:58;;;;;;;4.17;1.90;;;;;12.90;100143.00;;;;10041432;29;20279;-75
2020/12/14 10:43:01;;;;;;;2.33;1.47;;;;;13.10;100153.00;;;;10041583;29;20293;-75
2020/12/14 10:48:03;;;;;;;3.80;1.50;;;;;13.20;100145.00;;;;9988620;29;20233;-76
2020/12/14 10:53:06;;;;;;;2.13;1.60;;;;;13.40;100160.00;;;;10018585;29;20244;-76
2020/12/14 10:58:09;;;;;;;5.07;1.33;;;;;13.50;100159.00;;;;10018368;29;20237;-75
2020/12/14 11:03:11;;;;;;;4.50;2.30;;;;;13.60;100159.00;;;;10026755;29;20319;-76
2020/12/14 11:08:13;;;;;;;2.07;1.30;;;;;13.80;100160.00;;;;10056725;29;20232;-75
2020/12/14 11:13:15;;;;;;;5.27;1.37;;;;;13.80;100166.00;;;;10056449;29;20228;-75
2020/12/14 11:18:18;;;;;;;5.43;1.70;;;;;14.10;100166.00;;;;9995542;29;20328;-75
2020/12/14 11:23:33;;;;;;;2.23;1.40;;;;;14.40;100174.00;;;;10012772;29;20275;-75
2020/12/14 11:28:35;;;;;;;3.57;1.60;;;;;13.70;100178.00;;;;10017541;29;20244;-75
2020/12/14 11:33:37;;;;;;;3.73;1.87;;;;;13.30;100182.00;;;;10002255;29;20233;-75
2020/12/14 11:38:40;;;;;;;2.77;1.90;;;;;12.90;100180.00;;;;10002479;29;20241;-75
2020/12/14 11:43:42;;;;;;;3.53;1.97;;;;;12.70;100182.00;;;;10026319;29;20613;-75
2020/12/14 11:48:45;;;;;;;4.10;1.83;;;;;12.50;100166.00;;;;10025048;29;20237;-75
2020/12/14 11:53:48;;;;;;;3.40;1.77;;;;;12.30;100169.00;;;;10037337;29;20236;-75
2020/12/14 11:58:50;;;;;;;3.77;1.77;;;;;12.20;100182.00;;;;10046436;29;20228;-75
2020/12/14 12:03:52;;;;;;;4.93;2.00;;;;;12.10;100171.00;;;;10032356;29;20205;-75
2020/12/14 12:08:56;;;;;;;3.07;1.70;;;;;12.10;100180.00;;;;10023951;29;20232;-75
2020/12/14 12:13:58;;;;;;;5.70;1.80;;;;;12.30;100176.00;;;;10054676;29;20592;-75
2020/12/14 12:19:00;;;;;;;7.57;2.07;;;;;12.30;100166.00;;;;10011691;29;20236;-75
2020/12/14 12:24:03;;;;;;;2.83;1.63;;;;;12.30;100171.00;;;;10015419;29;20232;-75
2020/12/14 12:29:05;;;;;;;3.87;1.63;;;;;12.10;100167.00;;;;10046141;29;20225;-75
2020/12/14 12:34:07;;;;;;;5.27;2.30;;;;;12.00;100150.00;;;;10046223;29;20331;-75
2020/12/14 12:39:09;;;;;;;5.03;2.53;;;;;12.10;100150.00;;;;10061779;29;20816;-76
2020/12/14 12:44:12;;;;;;;5.50;2.00;;;;;12.10;100149.00;;;;10045793;29;20249;-76
2020/12/14 12:49:17;;;;;;;4.27;2.10;;;;;11.80;100162.00;;;;10045200;29;20261;-76
2020/12/14 12:54:20;;;;;;;3.83;1.63;;;;;11.50;100159.00;;;;10050317;29;20595;-76
2020/12/14 12:59:22;;;;;;;6.60;1.90;;;;;11.40;100162.00;;;;10084426;29;20231;-76
2020/12/14 13:04:25;;;;;;;3.03;1.70;;;;;11.50;100143.00;;;;10061402;29;20217;-76
2020/12/14 13:09:27;;;;;;;5.10;2.10;;;;;11.50;100148.00;;;;10057785;29;21005;-76
2020/12/14 13:14:29;;;;;;;4.60;1.83;;;;;11.40;100134.00;;;;10030158;29;20712;-76
2020/12/14 13:19:31;;;;;;;3.57;2.03;;;;;11.30;100136.00;;;;10060125;29;20617;-76
2020/12/14 13:24:33;;;;;;;4.87;1.93;;;;;11.20;100148.00;;;;10046001;29;20331;-76
2020/12/14 13:29:35;;;;;;;4.70;2.30;;;;;11.30;100142.00;;;;10028454;29;20236;-76
2020/12/14 13:34:38;;;;;;;3.27;2.10;;;;;11.30;100147.00;;;;10044122;29;20246;-76
2020/12/14 13:39:40;;;;;;;6.13;2.17;;;;;11.20;100137.00;;;;10058863;29;20235;-76
2020/12/14 13:44:42;;;;;;;5.70;2.63;;;;;11.00;100139.00;;;;10043406;29;20236;-76
2020/12/14 13:49:45;;;;;;;4.17;2.47;;;;;11.00;100140.00;;;;10028240;29;20240;-76
2020/12/14 13:54:47;;;;;;;8.67;2.30;;;;;11.00;100126.00;;;;10012651;29;20224;-76
2020/12/14 13:59:49;;;;;;;6.37;2.70;;;;;11.00;100136.00;;;;10061446;29;20717;-76
2020/12/14 14:04:51;;;;;;;4.93;2.83;;;;;10.90;100126.00;;;;10056616;29;20221;-76
2020/12/14 14:09:53;;;;;;;4.20;2.33;;;;;10.80;100133.00;;;;10048763;29;20582;-75
2020/12/14 14:14:56;;;;;;;7.40;2.73;;;;;10.80;100145.00;;;;10010193;29;20236;-76
2020/12/14 14:19:58;;;;;;;4.70;1.77;;;;;11.00;100136.00;;;;10052833;29;20288;-76
2020/12/14 14:25:02;;;;;;;4.73;1.97;;;;;11.30;100143.00;;;;10044551;29;20219;-76
2020/12/14 14:30:05;;;;;;;4.20;2.20;;;;;11.00;100139.00;;;;10071729;29;20228;-76
2020/12/14 14:35:10;;;;;;;4.60;2.20;;;;;10.70;100132.00;;;;10057856;29;20714;-76
2020/12/14 14:40:14;;;;;;;6.73;2.07;;;;;10.50;100141.00;;;;10063900;29;20307;-76
2020/12/14 14:45:16;;;;;;;5.73;2.40;;;;;10.30;100139.00;;;;10045341;29;20265;-75
2020/12/14 14:50:35;;;;;;;3.97;2.30;;;;;10.20;100158.00;;;;10058184;29;20297;-76
2020/12/14 14:55:37;;;;;;;5.20;2.40;;;;;10.10;100157.00;;;;10057167;29;20204;-75
2020/12/14 15:00:39;;;;;;;9.27;3.63;;;;;10.00;100169.00;;;;10061039;29;20201;-75
2020/12/14 15:05:41;;;;;;;4.23;2.13;;;;;9.90;100167.00;;;;10044441;29;20722;-76
2020/12/14 15:10:45;;;;;;;3.33;2.50;;;;;9.80;100173.00;;;;10084289;29;20201;-75
2020/12/14 15:15:47;;;;;;;8.50;2.80;;;;;9.70;100172.00;;;;10040603;29;20201;-75
2020/12/14 15:20:50;;;;;;;5.83;2.43;;;;;9.70;100173.00;;;;10024918;29;20200;-75
2020/12/14 15:25:52;;;;;;;9.07;3.10;;;;;9.70;100161.00;;;;10035092;29;20216;-75
2020/12/14 15:30:54;;;;;;;16.37;4.80;;;;;9.60;100160.00;;;;10012635;29;20491;-75
2020/12/14 15:36:14;;;;;;;7.20;3.90;;;;;9.50;100159.00;;;;10065075;29;20579;-75
2020/12/14 15:41:18;;;;;;;12.10;3.70;;;;;9.40;100156.00;;;;10039991;29;20201;-75
2020/12/14 15:46:20;;;;;;;9.97;4.10;;;;;9.30;100175.00;;;;10039459;29;20235;-75
2020/12/14 15:51:25;;;;;;;7.73;3.70;;;;;9.20;100176.00;;;;10041379;29;20201;-75
2020/12/14 15:56:28;;;;;;;7.00;3.67;;;;;9.20;100186.00;;;;10031746;29;20618;-75
2020/12/14 16:01:35;;;;;;;7.87;3.67;;;;;9.10;100195.00;;;;10065733;29;20733;-75
2020/12/14 16:06:37;;;;;;;8.57;4.73;;;;;9.00;100187.00;;;;10063107;29;20260;-75
2020/12/14 16:11:43;;;;;;;6.70;3.70;;;;;8.90;100180.00;;;;10047447;29;20234;-75
2020/12/14 16:16:45;;;;;;;6.73;3.67;;;;;9.00;100183.00;;;;10025746;29;20197;-75
2020/12/14 16:21:48;;;;;;;8.20;3.53;;;;;9.20;100186.00;;;;10033408;29;20211;-75
2020/12/14 16:26:52;;;;;;;8.03;3.60;;;;;9.30;100177.00;;;;10064342;29;20261;-75
2020/12/14 16:31:54;;;;;;;6.73;3.00;;;;;9.50;100194.00;;;;10023930;29;20658;-75
2020/12/14 16:36:58;;;;;;;6.40;2.70;;;;;9.60;100194.00;;;;10054299;29;20552;-75
2020/12/14 16:42:00;;;;;;;5.30;2.90;;;;;9.70;100201.00;;;;10054051;29;20217;-75
2020/12/14 16:47:02;;;;;;;8.50;2.60;;;;;9.80;100202.00;;;;10039165;29;20229;-75
2020/12/14 16:52:05;;;;;;;4.60;2.87;;;;;9.90;100188.00;;;;10059768;29;20193;-76
2020/12/14 16:57:07;;;;;;;7.87;2.97;;;;;9.90;100202.00;;;;10036341;29;20672;-75
2020/12/14 17:02:14;;;;;;;4.47;2.60;;;;;10.00;100207.00;;;;10044730;29;20212;-75
2020/12/14 17:07:21;;;;;;;8.30;3.13;;;;;10.00;100206.00;;;;10060509;29;20253;-76
2020/12/14 17:12:43;;;;;;;4.27;2.90;;;;;9.90;100204.00;;;;10059489;29;20279;-75
2020/12/14 17:17:45;;;;;;;5.70;4.10;;;;;9.90;100190.00;;;;10029744;29;20196;-75
2020/12/14 17:22:49;;;;;;;7.87;3.53;;;;;9.90;100195.00;;;;10044144;29;20250;-75
2020/12/14 17:27:52;;;;;;;6.40;3.30;;;;;9.80;100200.00;;;;10059537;29;20213;-74
2020/12/14 17:32:57;;;;;;;9.63;4.17;;;;;9.80;100190.00;;;;10028425;29;20250;-74
2020/12/14 17:37:59;;;;;;;11.93;4.93;;;;;9.80;100184.00;;;;10029106;29;20200;-75
2020/12/14 17:43:01;;;;;;;12.30;4.40;;;;;9.90;100168.00;;;;10027450;29;20217;-75
2020/12/14 17:48:03;;;;;;;14.50;4.27;;;;;9.80;100165.00;;;;9962404;29;20313;-76
2020/12/14 17:53:06;;;;;;;7.57;3.33;;;;;9.80;100181.00;;;;9976728;29;20304;-75
2020/12/14 17:58:08;;;;;;;6.63;3.30;;;;;9.80;100184.00;;;;10016693;29;20204;-75
2020/12/14 18:03:11;;;;;;;5.17;3.43;;;;;9.80;100188.00;;;;10009849;29;20200;-75
2020/12/14 18:08:13;;;;;;;4.90;3.93;;;;;9.80;100195.00;;;;10057286;29;20261;-74
2020/12/14 18:13:15;;;;;;;9.10;4.20;;;;;9.80;100191.00;;;;10062388;29;20625;-75
2020/12/14 18:18:27;;;;;;;8.47;4.07;;;;;9.80;100185.00;;;;10062459;29;20190;-74
2020/12/14 18:23:29;;;;;;;7.40;4.30;;;;;9.80;100179.00;;;;10024925;29;20193;-75
2020/12/14 18:28:32;;;;;;;8.83;4.40;;;;;9.90;100177.00;;;;10041747;29;20208;-75
2020/12/14 18:46:34;;;;;;;7.27;4.10;;;;;9.80;100129.00;;;;10049251;29;20260;-74
2020/12/14 19:45:38;;;;;;;14.20;3.90;;;;;9.70;100140.00;;;;10070007;29;20228;-75
2020/12/14 21:26:46;;;;;;;8.07;3.93;;;;;9.60;100130.00;;;;10059555;29;20223;-76
2020/12/14 21:31:48;;;;;;;6.17;3.93;;;;;9.50;100125.00;;;;10047057;29;20212;-75
2020/12/14 21:36:53;;;;;;;5.43;4.03;;;;;9.50;100136.00;;;;10074746;29;20193;-76
2020/12/14 21:42:04;;;;;;;10.73;4.50;;;;;9.50;100131.00;;;;10036218;29;20603;-76
2020/12/14 21:47:06;;;;;;;5.97;4.23;;;;;9.50;100139.00;;;;10058064;29;20217;-76
2020/12/14 21:52:11;;;;;;;7.63;4.20;;;;;9.50;100140.00;;;;10048820;29;20197;-76
2020/12/14 21:57:14;;;;;;;10.03;5.07;;;;;9.40;100144.00;;;;10019619;29;20217;-75
2020/12/14 22:02:17;;;;;;;6.20;4.40;;;;;9.40;100140.00;;;;10028390;29;20193;-76
2020/12/14 22:07:19;;;;;;;8.83;4.97;;;;;9.40;100146.00;;;;10030390;29;20300;-76
2020/12/14 22:12:21;;;;;;;6.60;4.60;;;;;9.40;100140.00;;;;10044222;29;20688;-75
2020/12/14 22:17:23;;;;;;;5.20;4.30;;;;;9.40;100139.00;;;;10027595;29;20567;-75
2020/12/14 22:22:26;;;;;;;5.63;4.60;;;;;9.40;100140.00;;;;10065491;29;20199;-76
2020/12/14 22:27:29;;;;;;;7.83;4.50;;;;;9.40;100144.00;;;;10031072;29;20217;-76
2020/12/14 22:32:32;;;;;;;5.63;4.47;;;;;9.40;100139.00;;;;10038724;29;20209;-75
2020/12/14 22:37:34;;;;;;;6.20;4.40;;;;;9.40;100127.00;;;;10040859;29;20193;-76
2020/12/14 22:42:37;;;;;;;10.50;4.63;;;;;9.40;100118.00;;;;10010095;29;20640;-76
2020/12/14 22:47:39;;;;;;;5.10;3.70;;;;;9.40;100129.00;;;;9987794;29;20254;-76
2020/12/14 22:52:42;;;;;;;5.70;3.90;;;;;9.50;100127.00;;;;9962281;29;69810;-76
2020/12/14 22:57:44;;;;;;;4.50;3.60;;;;;9.50;100137.00;;;;9957400;29;60676;-76
2020/12/14 23:04:28;;;;;;;7.10;4.17;;;;;9.50;100141.00;;;;10481383;27;20708;-75
2020/12/14 23:09:30;;;;;;;7.43;4.50;;;;;9.50;100142.00;;;;10428408;28;20688;-74
2020/12/14 23:14:31;;;;;;;4.57;4.13;;;;;9.50;100129.00;;;;10474855;28;20595;-75
2020/12/14 23:19:32;;;;;;;11.20;4.67;;;;;9.40;100121.00;;;;10445492;28;67787;-75
2020/12/14 23:24:35;;;;;;;7.77;4.43;;;;;9.40;100118.00;;;;10460951;28;20190;-75
2020/12/14 23:29:37;;;;;;;5.17;3.87;;;;;9.40;100114.00;;;;10478464;28;20255;-75
2020/12/14 23:34:39;;;;;;;5.83;3.87;;;;;9.40;100111.00;;;;10450277;28;20193;-75
2020/12/14 23:39:42;;;;;;;5.63;3.93;;;;;9.30;100104.00;;;;10472510;28;20286;-75
2020/12/14 23:44:43;;;;;;;5.50;3.80;;;;;9.30;100116.00;;;;10447677;28;20222;-74
2020/12/14 23:49:44;;;;;;;7.10;4.00;;;;;9.30;100114.00;;;;10471378;28;20536;-75
2020/12/14 23:54:46;;;;;;;6.60;3.63;;;;;9.30;100118.00;;;;10454296;28;20263;-75
2020/12/14 23:59:47;;;;;;;4.27;3.70;;;;;9.40;100100.00;;;;10487705;28;20209;-75
